KMSV/MSV METAR and TAF weather

Enter ICAO airport designator
Station Type Date Time Source
KMSV METAR 2019/08/22 07:04 UTC NOAA

KMSV 220704Z AUTO 34003KT 1SM BR VV002 18/18 A2990 RMK AO2 VIS 1/2V3 RVRNO


Station Type Date Time Source
KMSV Decoded METAR 2019/08/22 07:04 UTC NOAA

Station name not available
Aug 22, 2019 - 03:04 AM EDT / 2019.08.22 0704 UTC
Wind: from the NNW (340 degrees) at 3 MPH (3 KT):0
Visibility: 1 mile(s):0
Sky conditions: obscured
Weather: mist
Temperature: 64 F (18 C)
Dew Point: 64 F (18 C)
Relative Humidity: 100%
Pressure (altimeter): 29.9 in. Hg (1012 hPa)
ob: KMSV 220704Z AUTO 34003KT 1SM BR VV002 18/18 A2990 RMK AO2 VIS 1/2V3 RVRNO
cycle: 7

Station Type Date Time Source
KMSV TAF UTC NOAA

Error!

Example: see airport list